createdAt,value
2017-04-02T00:00:31.888Z,57.50
2017-04-02T00:01:38.316Z,58.20
2017-04-02T00:02:43.099Z,58.20
2017-04-02T00:03:48.617Z,57.60
2017-04-02T00:04:55.032Z,57.70
2017-04-02T00:05:59.684Z,57.60
2017-04-02T00:07:05.158Z,58.70
2017-04-02T00:08:10.813Z,59.50
2017-04-02T00:09:16.289Z,59.40
2017-04-02T00:10:21.860Z,59.30
2017-04-02T00:11:27.308Z,58.80
2017-04-02T00:12:32.841Z,59.10
2017-04-02T00:13:37.525Z,58.00
2017-04-02T00:14:43.169Z,57.30
2017-04-02T00:15:48.636Z,58.30
2017-04-02T00:16:54.294Z,57.90
2017-04-02T00:18:00.641Z,57.70
2017-04-02T00:19:05.469Z,57.70
2017-04-02T00:20:11.812Z,57.80
2017-04-02T00:21:17.570Z,57.60
2017-04-02T00:22:23.342Z,57.70
2017-04-02T00:23:28.808Z,57.60
2017-04-02T00:24:34.465Z,57.90
2017-04-02T00:25:39.189Z,57.90
2017-04-02T00:26:44.829Z,58.00
2017-04-02T00:27:50.293Z,58.00
2017-04-02T00:28:56.698Z,57.70
2017-04-02T00:30:01.494Z,57.70
2017-04-02T00:31:07.092Z,57.50
2017-04-02T00:32:13.669Z,57.00
2017-04-02T00:33:19.257Z,57.50
2017-04-02T00:34:25.038Z,57.60
2017-04-02T00:35:29.869Z,57.50
2017-04-02T00:36:36.060Z,57.40
2017-04-02T00:37:41.188Z,57.40
2017-04-02T00:38:47.358Z,57.20
2017-04-02T00:39:52.045Z,57.20
2017-04-02T00:40:57.601Z,57.50
2017-04-02T00:42:02.996Z,57.50
2017-04-02T00:43:07.688Z,57.60
2017-04-02T00:44:13.237Z,57.90
2017-04-02T00:45:18.765Z,58.30
2017-04-02T00:46:25.040Z,58.30
2017-04-02T00:47:29.709Z,58.30
2017-04-02T00:48:36.229Z,58.30
2017-04-02T00:49:40.972Z,58.20
2017-04-02T00:50:46.551Z,58.20
2017-04-02T00:51:52.910Z,58.30
2017-04-02T00:52:57.750Z,58.30
2017-04-02T00:54:04.176Z,58.50
2017-04-02T00:55:08.918Z,58.50
2017-04-02T00:56:15.201Z,58.60
2017-04-02T00:57:20.028Z,58.50
2017-04-02T00:58:25.569Z,58.40
2017-04-02T00:59:31.300Z,58.60
2017-04-02T01:00:36.733Z,59.80
2017-04-02T01:01:43.013Z,59.30
2017-04-02T01:02:48.552Z,59.00
2017-04-02T01:03:53.413Z,58.90
2017-04-02T01:04:59.073Z,59.50
2017-04-02T01:06:04.498Z,58.90
2017-04-02T01:07:09.980Z,59.80
2017-04-02T01:08:15.576Z,60.10
2017-04-02T01:09:21.197Z,59.90
2017-04-02T01:10:27.480Z,60.40
2017-04-02T01:11:33.896Z,60.80
2017-04-02T01:12:38.649Z,60.80
2017-04-02T01:13:45.041Z,60.20
2017-04-02T01:14:49.837Z,60.20
2017-04-02T01:15:55.465Z,60.60
2017-04-02T01:17:01.888Z,60.80
2017-04-02T01:18:07.443Z,60.50
2017-04-02T01:19:12.186Z,60.50
2017-04-02T01:20:18.521Z,59.70
2017-04-02T01:21:23.393Z,59.70
2017-04-02T01:22:29.652Z,60.60
2017-04-02T01:23:35.361Z,61.40
2017-04-02T01:24:40.149Z,61.20
2017-04-02T01:25:45.800Z,61.40
2017-04-02T01:26:52.183Z,61.10
2017-04-02T01:27:56.805Z,61.10
2017-04-02T01:29:01.443Z,60.70
2017-04-02T01:30:06.852Z,61.60
2017-04-02T01:31:12.393Z,61.30
2017-04-02T01:32:19.585Z,62.30
2017-04-02T01:33:24.388Z,61.10
2017-04-02T01:34:29.094Z,61.60
2017-04-02T01:35:35.321Z,61.30
2017-04-02T01:36:40.380Z,61.30
2017-04-02T01:37:45.884Z,61.50
2017-04-02T01:38:51.392Z,61.70
2017-04-02T01:39:56.941Z,61.30
2017-04-02T01:41:02.427Z,61.20
2017-04-02T01:42:07.934Z,61.50
2017-04-02T01:43:13.676Z,60.70
2017-04-02T01:44:18.530Z,60.70
2017-04-02T01:45:24.117Z,61.00
2017-04-02T01:46:29.625Z,61.10
2017-04-02T01:47:36.009Z,60.70
2017-04-02T01:48:42.445Z,61.50
2017-04-02T01:49:47.140Z,61.30
2017-04-02T01:50:52.633Z,61.90
2017-04-02T01:51:58.152Z,61.70
2017-04-02T01:53:03.793Z,61.70
2017-04-02T01:54:10.221Z,62.40
2017-04-02T01:55:15.116Z,62.40
2017-04-02T01:56:20.616Z,61.90
2017-04-02T01:57:25.273Z,62.20
2017-04-02T01:58:30.809Z,62.00
2017-04-02T01:59:38.185Z,61.50
2017-04-02T02:00:43.017Z,61.50
2017-04-02T02:01:48.577Z,62.30
2017-04-02T02:02:54.938Z,62.00
2017-04-02T02:04:00.504Z,61.10
2017-04-02T02:05:05.375Z,61.00
2017-04-02T02:06:11.746Z,60.40
2017-04-02T02:07:17.173Z,60.30
2017-04-02T02:08:22.197Z,60.20
2017-04-02T02:09:26.965Z,60.30
2017-04-02T02:10:33.228Z,60.60
2017-04-02T02:11:38.121Z,60.20
2017-04-02T02:12:44.500Z,60.60
2017-04-02T02:13:49.329Z,60.60
2017-04-02T02:14:55.688Z,60.50
2017-04-02T02:16:00.381Z,60.50
2017-04-02T02:17:05.129Z,60.60
2017-04-02T02:18:11.359Z,60.80
2017-04-02T02:19:16.876Z,61.20
2017-04-02T02:20:21.770Z,61.10
2017-04-02T02:21:27.381Z,61.50
2017-04-02T02:22:33.029Z,62.00
2017-04-02T02:23:39.343Z,62.50
2017-04-02T02:24:44.943Z,62.30
2017-04-02T02:25:50.557Z,62.10
2017-04-02T02:26:56.040Z,62.20
2017-04-02T02:28:00.902Z,62.10
2017-04-02T02:29:06.405Z,62.20
2017-04-02T02:30:12.761Z,62.40
2017-04-02T02:31:17.572Z,61.80
2017-04-02T02:32:23.029Z,62.00
2017-04-02T02:33:29.268Z,62.40
2017-04-02T02:34:34.042Z,62.50
2017-04-02T02:35:39.569Z,62.70
2017-04-02T02:36:45.244Z,62.90
2017-04-02T02:37:51.501Z,62.30
2017-04-02T02:38:56.534Z,62.30
2017-04-02T02:40:02.909Z,62.90
2017-04-02T02:41:08.487Z,63.00
2017-04-02T02:42:13.345Z,62.80
2017-04-02T02:43:19.681Z,62.60
2017-04-02T02:44:24.444Z,62.60
2017-04-02T02:45:29.807Z,62.70
2017-04-02T02:46:35.241Z,62.80
2017-04-02T02:47:40.769Z,63.00
2017-04-02T02:48:47.129Z,64.10
2017-04-02T02:49:52.784Z,63.30
2017-04-02T02:50:57.570Z,63.30
2017-04-02T02:52:03.302Z,63.40
2017-04-02T02:53:09.460Z,63.10
2017-04-02T02:54:14.448Z,63.10
2017-04-02T02:55:20.021Z,63.50
2017-04-02T02:56:25.504Z,64.00
2017-04-02T02:57:30.980Z,64.20
2017-04-02T02:58:37.329Z,63.80
2017-04-02T02:59:43.861Z,63.00
2017-04-02T03:00:49.545Z,62.70
2017-04-02T03:01:54.446Z,62.70
2017-04-02T03:02:59.940Z,62.70
2017-04-02T03:04:05.465Z,62.50
2017-04-02T03:05:11.106Z,62.90
2017-04-02T03:06:16.693Z,62.50
2017-04-02T03:07:22.182Z,62.60
2017-04-02T03:08:27.796Z,62.60
2017-04-02T03:09:34.252Z,61.90
2017-04-02T03:10:40.117Z,61.80
2017-04-02T03:11:44.871Z,61.80
2017-04-02T03:12:50.502Z,61.80
2017-04-02T03:13:55.961Z,62.60
2017-04-02T03:15:01.525Z,61.90
2017-04-02T03:16:07.896Z,62.10
2017-04-02T03:17:12.833Z,62.00
2017-04-02T03:18:18.434Z,62.80
2017-04-02T03:19:24.884Z,62.60
2017-04-02T03:20:30.348Z,62.50
2017-04-02T03:21:36.005Z,62.60
2017-04-02T03:22:40.665Z,62.50
2017-04-02T03:23:46.215Z,62.90
2017-04-02T03:24:51.844Z,63.00
2017-04-02T03:25:57.399Z,63.40
2017-04-02T03:27:03.000Z,62.90
2017-04-02T03:28:09.326Z,63.50
2017-04-02T03:29:14.261Z,63.50
2017-04-02T03:30:18.968Z,63.60
2017-04-02T03:31:24.497Z,63.70
2017-04-02T03:32:31.928Z,64.00
2017-04-02T03:33:36.685Z,64.00
2017-04-02T03:34:42.163Z,63.60
2017-04-02T03:35:46.965Z,63.50
2017-04-02T03:36:52.524Z,63.40
2017-04-02T03:37:58.938Z,63.10
2017-04-02T03:39:04.177Z,63.10
2017-04-02T03:40:09.288Z,62.90
2017-04-02T03:41:14.867Z,63.10
2017-04-02T03:42:19.492Z,63.00
2017-04-02T03:43:25.065Z,62.40
2017-04-02T03:44:30.657Z,63.20
2017-04-02T03:45:36.265Z,63.40
2017-04-02T03:46:42.689Z,62.40
2017-04-02T03:47:47.448Z,62.40
2017-04-02T03:48:53.889Z,63.50
2017-04-02T03:49:58.645Z,63.40
2017-04-02T03:51:04.341Z,63.20
2017-04-02T03:52:09.881Z,62.70
2017-04-02T03:53:16.324Z,62.30
2017-04-02T03:54:21.279Z,62.10
2017-04-02T03:55:26.889Z,61.70
2017-04-02T03:56:33.221Z,62.10
2017-04-02T03:57:37.997Z,62.10
2017-04-02T03:58:43.556Z,62.20
2017-04-02T03:59:50.746Z,62.50
2017-04-02T04:00:56.263Z,62.50
2017-04-02T04:02:01.044Z,62.50
2017-04-02T04:03:06.665Z,62.20
2017-04-02T04:04:12.145Z,62.20
2017-04-02T04:05:18.384Z,63.40
2017-04-02T04:06:23.199Z,63.40
2017-04-02T04:07:28.669Z,62.80
2017-04-02T04:08:34.252Z,63.70
2017-04-02T04:09:40.573Z,62.70
2017-04-02T04:10:46.306Z,62.40
2017-04-02T04:11:51.885Z,62.20
2017-04-02T04:12:56.734Z,62.10
2017-04-02T04:14:02.288Z,61.40
2017-04-02T04:15:07.777Z,62.40
2017-04-02T04:16:14.173Z,62.70
2017-04-02T04:17:18.929Z,62.70
2017-04-02T04:18:24.433Z,62.50
2017-04-02T04:19:30.025Z,63.20
2017-04-02T04:20:36.409Z,62.50
2017-04-02T04:21:42.173Z,62.90
2017-04-02T04:22:47.657Z,63.80
2017-04-02T04:23:52.537Z,63.90
2017-04-02T04:24:58.170Z,63.10
2017-04-02T04:26:03.761Z,63.20
2017-04-02T04:27:08.444Z,63.50
2017-04-02T04:28:13.988Z,62.90
2017-04-02T04:29:19.557Z,63.30
2017-04-02T04:30:24.348Z,62.80
2017-04-02T04:31:29.866Z,62.80
2017-04-02T04:32:34.685Z,62.80
2017-04-02T04:33:40.929Z,62.70
2017-04-02T04:34:45.739Z,62.60
2017-04-02T04:35:51.152Z,62.60
2017-04-02T04:36:56.862Z,62.70
2017-04-02T04:38:01.572Z,62.60
2017-04-02T04:39:08.186Z,62.80
2017-04-02T04:40:14.573Z,62.70
2017-04-02T04:41:19.322Z,62.70
2017-04-02T04:42:25.668Z,62.90
2017-04-02T04:43:30.689Z,62.90
2017-04-02T04:44:36.076Z,62.80
2017-04-02T04:45:42.453Z,63.00
2017-04-02T04:46:47.384Z,62.90
2017-04-02T04:47:52.981Z,63.70
2017-04-02T04:48:59.313Z,63.90
2017-04-02T04:50:04.868Z,64.00
2017-04-02T04:51:10.436Z,63.60
2017-04-02T04:52:15.124Z,63.70
2017-04-02T04:53:19.802Z,64.00
2017-04-02T04:54:26.177Z,63.90
2017-04-02T04:55:30.927Z,63.70
2017-04-02T04:56:36.446Z,64.20
2017-04-02T04:57:41.234Z,64.20
2017-04-02T04:58:46.805Z,64.60
2017-04-02T04:59:54.390Z,65.00
2017-04-02T05:00:59.211Z,64.90
2017-04-02T05:02:04.721Z,64.00
2017-04-02T05:03:10.321Z,64.80
2017-04-02T05:04:16.746Z,65.30
2017-04-02T05:05:21.572Z,65.20
2017-04-02T05:06:27.141Z,64.40
2017-04-02T05:07:33.504Z,65.50
2017-04-02T05:08:38.172Z,65.50
2017-04-02T05:09:43.744Z,64.40
2017-04-02T05:10:48.514Z,64.90
2017-04-02T05:11:54.900Z,64.90
2017-04-02T05:12:59.740Z,65.50
2017-04-02T05:14:05.219Z,64.60
2017-04-02T05:15:11.412Z,63.50
2017-04-02T05:16:16.325Z,63.40
2017-04-02T05:17:21.941Z,63.40
2017-04-02T05:18:27.488Z,63.20
2017-04-02T05:19:32.235Z,63.10
2017-04-02T05:20:37.681Z,63.80
2017-04-02T05:21:43.149Z,63.40
2017-04-02T05:22:47.901Z,63.40
2017-04-02T05:23:54.277Z,63.60
2017-04-02T05:24:59.068Z,63.60
2017-04-02T05:26:04.606Z,63.40
2017-04-02T05:27:10.270Z,63.40
2017-04-02T05:28:16.554Z,63.50
2017-04-02T05:29:21.385Z,63.30
2017-04-02T05:30:27.000Z,63.10
2017-04-02T05:31:32.672Z,63.70
2017-04-02T05:32:39.277Z,63.70
2017-04-02T05:33:44.060Z,64.40
2017-04-02T05:34:49.664Z,63.20
2017-04-02T05:35:54.381Z,64.00
2017-04-02T05:36:59.781Z,64.20
2017-04-02T05:38:05.436Z,64.60
2017-04-02T05:39:10.936Z,64.80
2017-04-02T05:40:15.696Z,65.00
2017-04-02T05:41:21.157Z,65.20
2017-04-02T05:42:26.792Z,65.00
2017-04-02T05:43:31.564Z,65.00
2017-04-02T05:44:37.197Z,65.20
2017-04-02T05:45:42.680Z,65.50
2017-04-02T05:46:47.368Z,65.30
2017-04-02T05:47:52.801Z,65.60
2017-04-02T05:48:57.616Z,65.50
2017-04-02T05:50:03.172Z,65.50
2017-04-02T05:51:09.473Z,65.30
2017-04-02T05:52:15.097Z,64.70
2017-04-02T05:53:19.876Z,64.70
2017-04-02T05:54:26.377Z,65.20
2017-04-02T05:55:31.898Z,65.30
2017-04-02T05:56:36.640Z,65.20
2017-04-02T05:57:42.132Z,64.80
2017-04-02T05:58:47.700Z,65.10
2017-04-02T05:59:53.318Z,65.00
2017-04-02T06:00:58.135Z,65.00
2017-04-02T06:02:03.691Z,65.30
2017-04-02T06:03:09.392Z,64.80
2017-04-02T06:04:14.845Z,65.20
2017-04-02T06:05:19.552Z,65.10
2017-04-02T06:06:25.842Z,65.50
2017-04-02T06:07:30.620Z,65.50
2017-04-02T06:08:36.172Z,65.10
2017-04-02T06:09:42.638Z,64.40
2017-04-02T06:10:47.369Z,64.20
2017-04-02T06:11:52.804Z,64.30
2017-04-02T06:12:58.222Z,64.60
2017-04-02T06:14:03.036Z,64.60
2017-04-02T06:15:08.641Z,64.80
2017-04-02T06:16:14.297Z,64.80
2017-04-02T06:17:20.528Z,65.00
2017-04-02T06:18:25.346Z,64.90
2017-04-02T06:19:30.894Z,64.60
2017-04-02T06:20:36.365Z,63.60
2017-04-02T06:21:42.873Z,63.80
2017-04-02T06:22:47.549Z,63.70
2017-04-02T06:23:53.120Z,63.70
2017-04-02T06:24:58.701Z,63.80
2017-04-02T06:26:04.285Z,63.60
2017-04-02T06:27:10.609Z,63.90
2017-04-02T06:28:16.948Z,62.70
2017-04-02T06:29:21.908Z,62.70
2017-04-02T06:30:28.274Z,62.20
2017-04-02T06:31:32.958Z,62.20
2017-04-02T06:32:39.221Z,62.70
2017-04-02T06:33:44.753Z,62.80
2017-04-02T06:34:50.514Z,63.00
2017-04-02T06:35:56.237Z,63.10
2017-04-02T06:37:00.948Z,63.10
2017-04-02T06:38:06.574Z,63.50
2017-04-02T06:39:11.963Z,63.40
2017-04-02T06:40:17.469Z,62.80
2017-04-02T06:41:22.299Z,62.70
2017-04-02T06:42:27.820Z,64.00
2017-04-02T06:43:33.323Z,63.00
2017-04-02T06:44:38.785Z,63.00
2017-04-02T06:45:44.414Z,62.70
2017-04-02T06:46:50.692Z,62.70
2017-04-02T06:47:55.540Z,62.70
2017-04-02T06:49:01.903Z,62.70
2017-04-02T06:50:07.420Z,62.50
2017-04-02T06:51:12.120Z,62.50
2017-04-02T06:52:16.812Z,62.60
2017-04-02T06:53:22.261Z,62.90
2017-04-02T06:54:27.124Z,62.80
2017-04-02T06:55:32.654Z,63.10
2017-04-02T06:56:39.021Z,62.10
2017-04-02T06:57:43.906Z,62.20
2017-04-02T06:58:49.478Z,62.20
2017-04-02T06:59:55.908Z,62.70
2017-04-02T07:01:00.694Z,62.30
2017-04-02T07:02:07.077Z,62.80
2017-04-02T07:03:12.609Z,62.60
2017-04-02T07:04:17.649Z,62.50
2017-04-02T07:05:23.313Z,62.40
2017-04-02T07:06:30.292Z,62.80
2017-04-02T07:07:36.077Z,62.90
2017-04-02T07:08:40.866Z,62.70
2017-04-02T07:09:46.396Z,63.30
2017-04-02T07:10:52.024Z,63.40
2017-04-02T07:11:57.557Z,63.20
2017-04-02T07:13:03.900Z,63.00
2017-04-02T07:14:08.630Z,63.00
2017-04-02T07:15:14.273Z,63.00
2017-04-02T07:16:19.954Z,62.80
2017-04-02T07:17:25.561Z,62.60
2017-04-02T07:18:31.898Z,62.60
2017-04-02T07:19:37.494Z,62.80
2017-04-02T07:20:42.196Z,62.80
2017-04-02T07:21:47.821Z,63.20
2017-04-02T07:22:53.352Z,62.70
2017-04-02T07:23:58.814Z,62.60
2017-04-02T07:25:04.364Z,62.70
2017-04-02T07:26:09.103Z,62.50
2017-04-02T07:27:15.501Z,63.00
2017-04-02T07:28:20.285Z,63.00
2017-04-02T07:29:26.697Z,62.10
2017-04-02T07:30:31.689Z,62.10
2017-04-02T07:31:37.308Z,62.20
2017-04-02T07:32:43.645Z,61.90
2017-04-02T07:33:48.513Z,61.70
2017-04-02T07:34:54.781Z,62.20
2017-04-02T07:36:00.315Z,62.20
2017-04-02T07:37:05.246Z,62.00
2017-04-02T07:38:10.012Z,62.50
2017-04-02T07:39:15.481Z,62.00
2017-04-02T07:40:21.033Z,62.00
2017-04-02T07:41:27.160Z,61.60
2017-04-02T07:42:32.830Z,61.90
2017-04-02T07:43:37.510Z,61.90
2017-04-02T07:44:43.780Z,61.70
2017-04-02T07:45:49.341Z,62.30
2017-04-02T07:46:54.729Z,62.40
2017-04-02T07:47:59.618Z,62.30
2017-04-02T07:49:05.301Z,63.00
2017-04-02T07:50:11.685Z,62.60
2017-04-02T07:51:16.573Z,62.40
2017-04-02T07:52:22.868Z,61.30
2017-04-02T07:53:28.386Z,61.50
2017-04-02T07:54:33.915Z,61.20
2017-04-02T07:55:39.560Z,61.80
2017-04-02T07:56:45.101Z,61.60
2017-04-02T07:57:50.088Z,61.60
2017-04-02T07:58:55.684Z,62.30
2017-04-02T08:00:02.089Z,62.70
2017-04-02T08:01:06.926Z,62.60
2017-04-02T08:02:12.388Z,62.00
2017-04-02T08:03:17.288Z,61.90
2017-04-02T08:04:22.765Z,61.80
2017-04-02T08:05:28.218Z,62.00
2017-04-02T08:06:33.736Z,61.60
2017-04-02T08:07:40.138Z,62.30
2017-04-02T08:08:44.844Z,62.20
2017-04-02T08:09:50.433Z,62.40
2017-04-02T08:10:55.973Z,62.60
2017-04-02T08:12:02.410Z,61.70
2017-04-02T08:13:07.193Z,61.70
2017-04-02T08:14:13.502Z,61.60
2017-04-02T08:15:19.015Z,61.50
2017-04-02T08:16:23.898Z,61.50
2017-04-02T08:17:29.353Z,61.90
2017-04-02T08:18:35.690Z,61.50
2017-04-02T08:19:40.466Z,61.50
2017-04-02T08:20:46.124Z,61.40
2017-04-02T08:21:51.686Z,61.30
2017-04-02T08:22:57.126Z,61.20
2017-04-02T08:24:03.525Z,61.20
2017-04-02T08:25:08.165Z,61.20
2017-04-02T08:26:14.517Z,60.40
2017-04-02T08:27:19.436Z,60.40
2017-04-02T08:28:25.696Z,60.50
2017-04-02T08:29:30.489Z,60.30
2017-04-02T08:30:36.168Z,60.30
2017-04-02T08:31:42.478Z,59.90
2017-04-02T08:32:48.046Z,59.80
2017-04-02T08:33:52.824Z,59.80
2017-04-02T08:34:58.419Z,59.60
2017-04-02T08:36:04.601Z,60.50
2017-04-02T08:37:09.585Z,60.40
2017-04-02T08:38:15.140Z,59.60
2017-04-02T08:39:21.551Z,59.70
2017-04-02T08:40:26.221Z,59.60
2017-04-02T08:41:31.834Z,58.90
2017-04-02T08:42:37.453Z,58.80
2017-04-02T08:43:43.085Z,58.70
2017-04-02T08:44:48.537Z,59.10
2017-04-02T08:45:54.170Z,58.60
2017-04-02T08:46:59.791Z,58.30
2017-04-02T08:48:05.446Z,58.80
2017-04-02T08:49:11.045Z,58.30
2017-04-02T08:50:17.412Z,58.40
2017-04-02T08:51:22.213Z,58.20
2017-04-02T08:52:28.517Z,58.00
2017-04-02T08:53:33.341Z,58.00
2017-04-02T08:54:39.702Z,58.00
2017-04-02T08:55:45.237Z,57.40
2017-04-02T08:56:50.005Z,57.40
2017-04-02T08:57:55.560Z,57.40
2017-04-02T08:59:00.244Z,58.00
2017-04-02T09:00:05.912Z,57.50
2017-04-02T09:01:11.277Z,57.80
2017-04-02T09:02:17.825Z,57.80
2017-04-02T09:03:22.718Z,57.80
2017-04-02T09:04:28.165Z,57.80
2017-04-02T09:05:34.609Z,57.40
2017-04-02T09:06:39.345Z,57.30
2017-04-02T09:07:45.769Z,57.50
2017-04-02T09:08:52.869Z,58.10
2017-04-02T09:09:57.957Z,58.10
2017-04-02T09:11:04.405Z,57.50
2017-04-02T09:12:09.897Z,57.10
2017-04-02T09:13:14.574Z,57.10
2017-04-02T09:14:20.100Z,57.20
2017-04-02T09:15:26.521Z,57.30
2017-04-02T09:16:32.081Z,57.20
2017-04-02T09:17:36.837Z,57.00
2017-04-02T09:18:42.537Z,57.10
2017-04-02T09:19:48.712Z,56.70
2017-04-02T09:20:53.556Z,56.50
2017-04-02T09:21:59.217Z,56.50
2017-04-02T09:23:04.729Z,55.50
2017-04-02T09:24:10.245Z,55.70
2017-04-02T09:25:15.808Z,56.10
2017-04-02T09:26:22.093Z,56.70
2017-04-02T09:27:27.019Z,56.70
2017-04-02T09:28:33.296Z,56.80
2017-04-02T09:29:38.198Z,56.70
2017-04-02T09:30:43.873Z,56.80
2017-04-02T09:31:49.513Z,56.30
2017-04-02T09:32:54.277Z,56.30
2017-04-02T09:34:00.633Z,55.90
2017-04-02T09:35:06.185Z,56.30
2017-04-02T09:36:10.981Z,56.30
2017-04-02T09:37:17.272Z,56.50
2017-04-02T09:38:22.188Z,56.50
2017-04-02T09:39:28.593Z,58.00
2017-04-02T09:40:34.236Z,57.70
2017-04-02T09:41:39.287Z,57.60
2017-04-02T09:42:45.589Z,57.80
2017-04-02T09:43:50.424Z,57.80
2017-04-02T09:44:56.005Z,58.20
2017-04-02T09:46:01.357Z,57.90
2017-04-02T09:47:07.006Z,57.60
2017-04-02T09:48:12.523Z,58.10
2017-04-02T09:49:18.179Z,58.10
2017-04-02T09:50:22.852Z,58.10
2017-04-02T09:51:29.200Z,57.60
2017-04-02T09:52:34.748Z,57.60
2017-04-02T09:53:39.633Z,57.60
2017-04-02T09:54:45.965Z,58.40
2017-04-02T09:55:51.549Z,57.40
2017-04-02T09:56:56.504Z,57.30
2017-04-02T09:58:01.163Z,57.40
2017-04-02T09:59:07.469Z,57.00
2017-04-02T10:00:13.162Z,57.30
2017-04-02T10:01:18.742Z,57.50
2017-04-02T10:02:23.677Z,57.50
2017-04-02T10:03:30.034Z,57.10
2017-04-02T10:04:34.895Z,57.10
2017-04-02T10:05:40.541Z,57.60
2017-04-02T10:06:46.105Z,57.70
2017-04-02T10:07:51.512Z,57.30
2017-04-02T10:08:56.222Z,57.10
2017-04-02T10:10:02.584Z,57.30
2017-04-02T10:11:07.662Z,57.30
2017-04-02T10:12:13.093Z,57.00
2017-04-02T10:13:19.468Z,56.60
2017-04-02T10:14:24.432Z,56.70
2017-04-02T10:15:30.684Z,56.70
2017-04-02T10:16:35.581Z,56.50
2017-04-02T10:17:41.034Z,56.80
2017-04-02T10:18:45.796Z,57.00
2017-04-02T10:19:51.398Z,55.80
2017-04-02T10:20:56.101Z,55.60
2017-04-02T10:22:01.629Z,55.70
2017-04-02T10:23:07.776Z,56.10
2017-04-02T10:24:12.672Z,56.10
2017-04-02T10:25:18.259Z,55.70
2017-04-02T10:26:23.871Z,54.60
2017-04-02T10:27:29.544Z,56.10
2017-04-02T10:28:35.089Z,54.30
2017-04-02T10:29:40.687Z,55.10
2017-04-02T10:30:46.244Z,55.50
2017-04-02T10:31:51.990Z,55.20
2017-04-02T10:32:56.873Z,55.20
2017-04-02T10:34:02.306Z,56.20
2017-04-02T10:35:08.746Z,56.40
2017-04-02T10:36:13.575Z,56.30
2017-04-02T10:37:19.069Z,56.40
2017-04-02T10:38:24.652Z,56.10
2017-04-02T10:39:30.113Z,55.50
2017-04-02T10:40:36.606Z,55.90
2017-04-02T10:41:41.242Z,55.90
2017-04-02T10:42:46.789Z,55.50
2017-04-02T10:43:52.405Z,55.80
2017-04-02T10:44:57.892Z,55.60
2017-04-02T10:46:04.305Z,55.70
2017-04-02T10:47:09.098Z,55.60
2017-04-02T10:48:14.662Z,56.90
2017-04-02T10:49:19.553Z,56.80
2017-04-02T10:50:24.916Z,56.00
2017-04-02T10:51:30.518Z,56.90
2017-04-02T10:52:36.130Z,56.50
2017-04-02T10:53:40.811Z,56.70
2017-04-02T10:54:46.457Z,56.70
2017-04-02T10:55:51.190Z,56.40
2017-04-02T10:56:56.676Z,56.90
2017-04-02T10:58:02.323Z,57.00
2017-04-02T10:59:07.824Z,55.10
2017-04-02T11:00:13.373Z,53.90
2017-04-02T11:01:19.636Z,55.20
2017-04-02T11:02:24.752Z,55.10
2017-04-02T11:03:30.892Z,54.60
2017-04-02T11:04:35.861Z,54.60
2017-04-02T11:05:41.426Z,53.00
2017-04-02T11:06:46.141Z,53.10
2017-04-02T11:07:50.889Z,53.10
2017-04-02T11:08:56.413Z,52.90
2017-04-02T11:10:02.034Z,54.00
2017-04-02T11:11:08.489Z,53.00
2017-04-02T11:12:14.029Z,52.20
2017-04-02T11:13:19.605Z,51.80
2017-04-02T11:14:24.557Z,51.70
2017-04-02T11:15:29.276Z,51.70
2017-04-02T11:16:34.837Z,52.60
2017-04-02T11:17:40.321Z,53.20
2017-04-02T11:18:45.864Z,52.60
2017-04-02T11:19:51.519Z,51.70
2017-04-02T11:20:57.158Z,51.90
2017-04-02T11:22:02.780Z,52.00
2017-04-02T11:23:09.144Z,52.00
2017-04-02T11:24:14.064Z,52.00
2017-04-02T11:25:18.779Z,51.10
2017-04-02T11:26:24.385Z,49.80
2017-04-02T11:27:29.864Z,49.30
2017-04-02T11:28:35.447Z,49.20
2017-04-02T11:29:41.765Z,48.80
2017-04-02T11:30:47.394Z,49.10
2017-04-02T11:31:52.215Z,49.10
2017-04-02T11:32:57.758Z,49.80
2017-04-02T11:34:03.409Z,50.70
2017-04-02T11:35:09.780Z,50.30
2017-04-02T11:36:14.669Z,50.20
2017-04-02T11:37:21.182Z,50.00
2017-04-02T11:38:26.373Z,50.10
2017-04-02T11:39:31.784Z,50.60
2017-04-02T11:40:37.414Z,49.10
2017-04-02T11:41:42.925Z,48.80
2017-04-02T11:42:49.292Z,49.30
2017-04-02T11:43:54.157Z,49.30
2017-04-02T11:45:00.400Z,50.40
2017-04-02T11:46:05.977Z,50.50
2017-04-02T11:47:11.481Z,50.40
2017-04-02T11:48:16.246Z,50.40
2017-04-02T11:49:21.700Z,50.20
2017-04-02T11:50:26.509Z,49.60
2017-04-02T11:51:32.784Z,49.20
2017-04-02T11:52:37.600Z,49.10
2017-04-02T11:53:43.150Z,48.70
2017-04-02T11:54:49.604Z,49.00
2017-04-02T11:55:55.204Z,49.00
2017-04-02T11:57:00.707Z,48.80
2017-04-02T11:58:05.592Z,48.80
2017-04-02T11:59:11.093Z,49.40
2017-04-02T12:00:17.490Z,49.10
2017-04-02T12:01:22.957Z,50.10
2017-04-02T12:02:28.536Z,49.50
2017-04-02T12:03:33.392Z,49.40
2017-04-02T12:04:38.088Z,50.40
2017-04-02T12:05:43.788Z,51.30
2017-04-02T12:06:50.239Z,51.40
2017-04-02T12:07:55.243Z,50.80
2017-04-02T12:09:01.474Z,50.60
2017-04-02T12:10:06.411Z,50.50
2017-04-02T12:11:12.085Z,50.80
2017-04-02T12:12:18.283Z,51.00
2017-04-02T12:13:22.964Z,51.00
2017-04-02T12:14:29.282Z,50.90
2017-04-02T12:15:34.072Z,50.90
2017-04-02T12:16:40.480Z,51.10
2017-04-02T12:17:45.288Z,51.00
2017-04-02T12:18:51.781Z,51.00
2017-04-02T12:19:56.639Z,50.90
2017-04-02T12:21:02.282Z,51.10
2017-04-02T12:22:07.873Z,50.70
2017-04-02T12:23:13.370Z,50.80
2017-04-02T12:24:19.529Z,51.00
2017-04-02T12:25:25.185Z,50.70
2017-04-02T12:26:30.792Z,51.10
2017-04-02T12:27:36.465Z,50.80
2017-04-02T12:28:42.197Z,50.90
2017-04-02T12:29:47.889Z,50.50
2017-04-02T12:30:53.474Z,50.70
2017-04-02T12:31:58.326Z,50.70
2017-04-02T12:33:04.581Z,50.40
2017-04-02T12:34:10.136Z,50.40
2017-04-02T12:35:15.012Z,50.30
2017-04-02T12:36:21.255Z,50.30
2017-04-02T12:37:26.206Z,50.20
2017-04-02T12:38:31.716Z,50.10
2017-04-02T12:39:38.165Z,49.90
2017-04-02T12:40:43.754Z,49.60
2017-04-02T12:41:48.569Z,49.60
2017-04-02T12:42:54.981Z,49.40
2017-04-02T12:43:59.940Z,49.30
2017-04-02T12:45:05.521Z,49.60
2017-04-02T12:46:11.884Z,49.60
2017-04-02T12:47:16.866Z,49.60
2017-04-02T12:48:23.256Z,49.60
2017-04-02T12:49:28.822Z,49.60
2017-04-02T12:50:33.845Z,49.60
2017-04-02T12:51:38.522Z,48.90
2017-04-02T12:52:44.801Z,48.60
2017-04-02T12:53:49.785Z,48.50
2017-04-02T12:54:56.277Z,48.90
2017-04-02T12:56:01.037Z,48.80
2017-04-02T12:57:07.350Z,48.60
2017-04-02T12:58:12.905Z,48.50
2017-04-02T12:59:17.616Z,48.50
2017-04-02T13:00:22.341Z,48.80
2017-04-02T13:01:27.869Z,49.00
2017-04-02T13:02:32.658Z,48.90
2017-04-02T13:03:39.053Z,50.20
2017-04-02T13:04:44.689Z,50.10
2017-04-02T13:05:50.253Z,50.20
2017-04-02T13:06:54.944Z,50.20
2017-04-02T13:08:01.333Z,50.40
2017-04-02T13:09:06.318Z,50.40
2017-04-02T13:10:11.821Z,50.30
2017-04-02T13:11:18.282Z,49.30
2017-04-02T13:12:23.137Z,49.20
2017-04-02T13:13:28.676Z,48.80
2017-04-02T13:14:34.073Z,48.60
2017-04-02T13:15:39.624Z,48.00
2017-04-02T13:16:45.335Z,47.90
2017-04-02T13:17:49.965Z,47.90
2017-04-02T13:18:54.812Z,48.10
2017-04-02T13:20:00.270Z,47.90
2017-04-02T13:21:06.593Z,47.90
2017-04-02T13:22:12.219Z,48.30
2017-04-02T13:23:17.655Z,48.30
2017-04-02T13:24:22.485Z,48.30
2017-04-02T13:25:28.173Z,48.10
2017-04-02T13:26:34.465Z,48.00
2017-04-02T13:27:39.361Z,48.00
2017-04-02T13:28:45.700Z,47.50
2017-04-02T13:29:51.296Z,47.30
2017-04-02T13:30:57.005Z,47.40
2017-04-02T13:32:02.504Z,47.50
2017-04-02T13:33:08.158Z,47.70
2017-04-02T13:34:12.929Z,47.50
2017-04-02T13:35:18.568Z,47.80
2017-04-02T13:36:24.754Z,46.80
2017-04-02T13:37:30.390Z,46.30
2017-04-02T13:38:35.212Z,46.30
2017-04-02T13:39:40.847Z,46.00
2017-04-02T13:40:45.579Z,46.20
2017-04-02T13:41:51.029Z,46.70
2017-04-02T13:42:57.261Z,46.60
2017-04-02T13:44:02.297Z,46.60
2017-04-02T13:45:08.580Z,47.00
2017-04-02T13:46:14.402Z,45.90
2017-04-02T13:47:20.097Z,45.90
2017-04-02T13:48:25.029Z,45.80
2017-04-02T13:49:30.752Z,46.00
2017-04-02T13:50:37.157Z,45.80
2017-04-02T13:51:42.742Z,45.40
2017-04-02T13:52:48.274Z,45.90
2017-04-02T13:53:53.177Z,45.80
2017-04-02T13:54:57.921Z,45.80
2017-04-02T13:56:03.617Z,45.80
2017-04-02T13:57:08.997Z,45.50
2017-04-02T13:58:14.609Z,45.50
2017-04-02T13:59:20.344Z,45.40
2017-04-02T14:00:26.361Z,46.50
2017-04-02T14:01:31.761Z,46.50
2017-04-02T14:02:36.773Z,46.80
2017-04-02T14:03:42.292Z,46.50